Time;durP1;ratioP1;P1;durP2;ratioP2;P2;SDS_P1;SDS_P2;PMS_P1;PMS_P2;Temp;Humidity;BMP_temperature;BMP_pressure;BME280_temperature;BME280_humidity;BME280_pressure;Samples;Min_cycle;Max_cycle;Signal;HPM_P1;HPM_P2
2022/06/30 00:01:39;;;;;;;5.22;3.58;;;;;;;;;;5019248;28;20111;-70
2022/06/30 00:04:04;;;;;;;5.72;3.95;;;;;;;;;;5008520;28;20837;-72
2022/06/30 00:06:30;;;;;;;5.32;4.03;;;;;;;;;;5014739;28;20036;-70
2022/06/30 00:08:55;;;;;;;4.57;4.18;;;;;;;;;;5011811;28;20107;-70
2022/06/30 00:11:21;;;;;;;8.73;4.00;;;;;;;;;;5017695;28;20033;-70
2022/06/30 00:13:46;;;;;;;4.82;4.43;;;;;;;;;;5020935;28;20322;-72
2022/06/30 00:16:12;;;;;;;7.03;4.47;;;;;;;;;;5017177;28;20429;-68
2022/06/30 00:18:37;;;;;;;4.75;4.10;;;;;;;;;;5018227;28;20021;-71
2022/06/30 00:21:03;;;;;;;11.50;4.25;;;;;;;;;;5009579;28;20021;-69
2022/06/30 00:23:29;;;;;;;4.25;3.85;;;;;;;;;;5018337;28;20030;-70
2022/06/30 00:25:54;;;;;;;4.20;3.80;;;;;;;;;;5020319;28;20026;-73
2022/06/30 00:28:20;;;;;;;4.63;3.83;;;;;;;;;;5015748;28;20075;-68
2022/06/30 00:30:46;;;;;;;6.80;4.43;;;;;;;;;;5017276;28;20057;-73
2022/06/30 00:33:12;;;;;;;6.43;3.80;;;;;;;;;;5017794;28;20090;-68
2022/06/30 00:35:37;;;;;;;4.50;3.50;;;;;;;;;;5016630;28;20352;-75
2022/06/30 00:38:04;;;;;;;5.90;3.38;;;;;;;;;;5014481;28;20032;-70
2022/06/30 00:40:33;;;;;;;4.97;3.70;;;;;;;;;;5015285;28;20045;-68
2022/06/30 00:42:58;;;;;;;4.60;3.33;;;;;;;;;;5017078;28;20036;-69
2022/06/30 00:45:24;;;;;;;6.43;4.03;;;;;;;;;;5016128;28;20364;-68
2022/06/30 00:47:49;;;;;;;6.20;3.72;;;;;;;;;;5014171;28;20261;-68
2022/06/30 00:50:14;;;;;;;5.65;3.70;;;;;;;;;;5014264;28;20088;-69
2022/06/30 00:52:40;;;;;;;4.05;3.60;;;;;;;;;;5014235;28;20368;-69
2022/06/30 00:55:06;;;;;;;6.38;3.38;;;;;;;;;;5017378;28;20032;-68
2022/06/30 00:57:32;;;;;;;6.30;3.30;;;;;;;;;;5011179;28;20037;-75
2022/06/30 00:59:58;;;;;;;4.32;3.30;;;;;;;;;;5016732;28;20836;-69
2022/06/30 01:02:24;;;;;;;5.88;3.22;;;;;;;;;;5016109;28;20107;-73
2022/06/30 01:04:51;;;;;;;3.40;3.10;;;;;;;;;;5019146;28;20441;-69
2022/06/30 01:07:18;;;;;;;4.22;3.05;;;;;;;;;;5018352;28;20848;-76
2022/06/30 01:12:42;;;;;;;5.32;3.50;;;;;;;;;;5010370;28;20392;-69
2022/06/30 01:15:08;;;;;;;4.20;3.80;;;;;;;;;;5015149;28;20038;-68
2022/06/30 01:17:33;;;;;;;7.65;3.97;;;;;;;;;;5015777;28;20369;-77
2022/06/30 01:20:00;;;;;;;3.50;3.20;;;;;;;;;;5015853;28;20033;-74
2022/06/30 01:22:25;;;;;;;5.28;3.15;;;;;;;;;;5016568;28;20030;-67
2022/06/30 01:24:51;;;;;;;4.88;3.25;;;;;;;;;;5016648;28;20060;-69
2022/06/30 01:27:16;;;;;;;6.68;3.63;;;;;;;;;;5014846;28;20033;-69
2022/06/30 01:29:42;;;;;;;4.40;3.05;;;;;;;;;;5008131;28;20364;-69
2022/06/30 01:32:07;;;;;;;5.25;3.40;;;;;;;;;;5011060;28;20033;-74
2022/06/30 01:34:33;;;;;;;4.15;3.30;;;;;;;;;;5016220;28;20365;-70
2022/06/30 01:36:59;;;;;;;3.58;3.25;;;;;;;;;;5009648;28;20083;-75
2022/06/30 01:39:25;;;;;;;3.45;3.03;;;;;;;;;;5015723;28;20670;-69
2022/06/30 01:41:50;;;;;;;3.95;2.88;;;;;;;;;;5009291;28;20457;-69
2022/06/30 01:44:15;;;;;;;4.30;3.30;;;;;;;;;;5008337;28;20026;-69
2022/06/30 01:46:50;;;;;;;4.90;4.10;;;;;;;;;;5016982;28;20181;-68
2022/06/30 01:49:16;;;;;;;5.07;3.38;;;;;;;;;;5009157;28;20681;-70
2022/06/30 01:51:42;;;;;;;4.57;3.50;;;;;;;;;;5016361;28;20436;-71
2022/06/30 01:54:08;;;;;;;4.22;3.83;;;;;;;;;;5015228;28;20099;-71
2022/06/30 01:56:34;;;;;;;4.93;3.97;;;;;;;;;;5018502;28;20033;-72
2022/06/30 01:58:59;;;;;;;11.57;3.92;;;;;;;;;;5013604;28;20033;-69
2022/06/30 02:01:24;;;;;;;4.00;3.65;;;;;;;;;;5016321;28;20380;-70
2022/06/30 02:03:50;;;;;;;3.85;3.28;;;;;;;;;;5014834;28;20233;-69
2022/06/30 02:06:15;;;;;;;6.95;3.72;;;;;;;;;;5009884;28;20108;-68
2022/06/30 02:08:41;;;;;;;3.83;3.28;;;;;;;;;;5012792;28;20029;-68
2022/06/30 02:11:06;;;;;;;4.43;3.45;;;;;;;;;;5012984;28;20164;-69
2022/06/30 02:13:31;;;;;;;4.28;2.95;;;;;;;;;;5017434;28;20034;-67
2022/06/30 02:15:57;;;;;;;3.58;3.28;;;;;;;;;;5015986;28;20028;-69
2022/06/30 02:18:22;;;;;;;5.55;3.30;;;;;;;;;;5015338;28;20352;-75
2022/06/30 02:20:47;;;;;;;4.97;3.10;;;;;;;;;;5008151;28;20083;-69
2022/06/30 02:23:13;;;;;;;7.65;3.50;;;;;;;;;;5016238;28;20028;-75
2022/06/30 02:25:38;;;;;;;5.65;3.38;;;;;;;;;;5016297;28;20024;-71
2022/06/30 02:28:05;;;;;;;6.65;4.00;;;;;;;;;;5015735;28;20025;-69
2022/06/30 02:30:30;;;;;;;6.93;3.60;;;;;;;;;;5004467;28;20034;-70
2022/06/30 02:32:56;;;;;;;9.02;4.55;;;;;;;;;;5017799;28;20389;-68
2022/06/30 02:35:21;;;;;;;4.43;3.50;;;;;;;;;;5017612;28;20037;-71
2022/06/30 02:37:46;;;;;;;5.30;3.08;;;;;;;;;;5010902;28;20029;-69
2022/06/30 02:40:12;;;;;;;6.97;3.75;;;;;;;;;;5008244;28;20147;-75
2022/06/30 02:42:37;;;;;;;4.10;3.17;;;;;;;;;;5014840;28;20061;-70
2022/06/30 02:45:03;;;;;;;8.90;3.70;;;;;;;;;;5016723;28;20084;-76
2022/06/30 02:47:32;;;;;;;4.10;3.42;;;;;;;;;;5015941;28;20126;-70
2022/06/30 02:49:58;;;;;;;3.47;3.00;;;;;;;;;;5015140;28;20025;-68
2022/06/30 02:52:23;;;;;;;5.28;3.67;;;;;;;;;;5017057;28;20033;-71
2022/06/30 02:54:48;;;;;;;5.45;3.78;;;;;;;;;;5010562;28;20090;-72
2022/06/30 02:57:14;;;;;;;4.38;3.45;;;;;;;;;;5015356;28;20029;-71
2022/06/30 02:59:39;;;;;;;3.45;3.15;;;;;;;;;;5023191;28;20073;-68
2022/06/30 03:02:04;;;;;;;4.95;3.25;;;;;;;;;;5020744;28;20440;-70
2022/06/30 03:04:30;;;;;;;4.68;3.50;;;;;;;;;;5019151;28;20025;-69
2022/06/30 03:06:55;;;;;;;4.18;3.55;;;;;;;;;;5022784;28;20160;-68
2022/06/30 03:09:22;;;;;;;5.70;3.60;;;;;;;;;;5016942;28;20022;-78
2022/06/30 03:11:47;;;;;;;3.67;3.38;;;;;;;;;;5026259;28;20471;-70
2022/06/30 03:14:13;;;;;;;10.75;4.10;;;;;;;;;;5016291;28;20034;-70
2022/06/30 03:16:38;;;;;;;10.27;4.50;;;;;;;;;;5016089;28;20340;-69
2022/06/30 03:19:04;;;;;;;12.52;4.05;;;;;;;;;;5018730;28;20037;-69
2022/06/30 03:21:29;;;;;;;5.45;3.55;;;;;;;;;;5018377;28;20033;-69
2022/06/30 03:23:55;;;;;;;7.70;3.60;;;;;;;;;;5016354;28;20056;-70
2022/06/30 03:26:20;;;;;;;5.57;3.22;;;;;;;;;;5012778;28;20100;-71
2022/06/30 03:28:46;;;;;;;3.97;3.25;;;;;;;;;;5023771;28;20124;-77
2022/06/30 03:31:11;;;;;;;4.38;3.35;;;;;;;;;;5020213;28;20115;-71
2022/06/30 03:33:37;;;;;;;6.22;3.97;;;;;;;;;;5018786;28;20400;-69
2022/06/30 03:36:02;;;;;;;3.65;3.30;;;;;;;;;;5019170;28;20061;-70
2022/06/30 03:38:28;;;;;;;5.15;3.20;;;;;;;;;;5013856;28;20413;-72
2022/06/30 03:40:53;;;;;;;4.38;3.10;;;;;;;;;;5010831;28;20073;-69
2022/06/30 03:43:19;;;;;;;4.05;3.08;;;;;;;;;;5017482;28;20029;-73
2022/06/30 03:45:44;;;;;;;3.83;3.00;;;;;;;;;;5022387;28;20026;-69
2022/06/30 03:48:09;;;;;;;5.38;3.03;;;;;;;;;;5020535;28;20071;-70
2022/06/30 03:50:35;;;;;;;4.38;3.60;;;;;;;;;;5018426;28;20022;-76
2022/06/30 03:53:01;;;;;;;4.60;3.10;;;;;;;;;;5020239;28;20113;-71
2022/06/30 03:55:26;;;;;;;4.55;3.75;;;;;;;;;;5013524;28;20471;-75
2022/06/30 03:57:51;;;;;;;4.40;3.00;;;;;;;;;;5017767;28;20120;-72
2022/06/30 04:00:17;;;;;;;3.83;3.13;;;;;;;;;;5021305;28;20057;-74
2022/06/30 04:02:43;;;;;;;3.92;3.53;;;;;;;;;;5019524;28;20037;-73
2022/06/30 04:05:08;;;;;;;5.20;3.35;;;;;;;;;;5019761;28;20060;-71
2022/06/30 04:07:41;;;;;;;3.17;2.88;;;;;;;;;;5018565;28;20318;-69
2022/06/30 04:10:07;;;;;;;9.70;3.97;;;;;;;;;;5013903;28;20041;-70
2022/06/30 04:12:32;;;;;;;4.10;3.67;;;;;;;;;;5010732;28;20030;-69
2022/06/30 04:14:58;;;;;;;6.88;4.38;;;;;;;;;;5008445;28;20034;-69
2022/06/30 04:17:23;;;;;;;5.05;3.70;;;;;;;;;;5009520;28;20033;-68
2022/06/30 04:19:48;;;;;;;3.70;2.80;;;;;;;;;;5007724;28;20401;-72
2022/06/30 04:22:14;;;;;;;5.28;3.78;;;;;;;;;;5008117;28;20025;-69
2022/06/30 04:24:39;;;;;;;4.03;3.67;;;;;;;;;;5007413;28;20037;-70
2022/06/30 04:27:05;;;;;;;8.20;3.60;;;;;;;;;;5006974;28;20037;-68
2022/06/30 04:29:30;;;;;;;11.93;4.13;;;;;;;;;;5011755;28;20060;-70
2022/06/30 04:34:39;;;;;;;13.07;4.47;;;;;;;;;;5013175;28;20040;-68
2022/06/30 04:37:05;;;;;;;12.80;4.38;;;;;;;;;;5016272;28;20021;-74
2022/06/30 04:39:30;;;;;;;10.07;3.47;;;;;;;;;;5018981;28;20021;-70
2022/06/30 04:41:55;;;;;;;6.90;3.72;;;;;;;;;;5016951;28;20050;-68
2022/06/30 04:44:21;;;;;;;6.05;3.60;;;;;;;;;;5008834;28;20463;-70
2022/06/30 04:46:46;;;;;;;7.10;3.50;;;;;;;;;;5012443;28;20429;-68
2022/06/30 04:49:12;;;;;;;6.25;3.97;;;;;;;;;;5011094;28;20028;-71
2022/06/30 04:51:37;;;;;;;5.03;3.85;;;;;;;;;;5013688;28;20138;-72
2022/06/30 04:54:02;;;;;;;10.38;3.65;;;;;;;;;;5009328;28;20034;-71
2022/06/30 04:56:28;;;;;;;3.72;3.42;;;;;;;;;;5008002;28;20030;-74
2022/06/30 04:58:53;;;;;;;7.70;3.65;;;;;;;;;;5006613;28;20453;-73
2022/06/30 05:01:18;;;;;;;12.18;3.70;;;;;;;;;;5007238;28;20100;-70
2022/06/30 05:03:44;;;;;;;12.30;3.78;;;;;;;;;;5013352;28;20030;-70
2022/06/30 05:06:10;;;;;;;8.48;4.00;;;;;;;;;;5013996;28;20044;-71
2022/06/30 05:08:35;;;;;;;10.82;3.95;;;;;;;;;;5014308;28;20368;-69
2022/06/30 05:11:00;;;;;;;9.38;4.18;;;;;;;;;;5009392;28;20091;-69
2022/06/30 05:13:26;;;;;;;6.22;3.38;;;;;;;;;;5024368;28;20065;-71
2022/06/30 05:15:52;;;;;;;7.70;4.03;;;;;;;;;;5014895;28;20033;-73
2022/06/30 05:18:17;;;;;;;6.60;3.75;;;;;;;;;;5011854;28;20034;-68
2022/06/30 05:20:43;;;;;;;7.00;3.97;;;;;;;;;;5014034;28;20111;-69
2022/06/30 05:23:08;;;;;;;8.80;3.65;;;;;;;;;;5011287;28;20026;-69
2022/06/30 05:28:18;;;;;;;4.20;3.30;;;;;;;;;;5014848;28;20041;-71
2022/06/30 05:30:43;;;;;;;5.03;3.50;;;;;;;;;;5011665;28;20456;-72
2022/06/30 05:33:09;;;;;;;5.70;4.07;;;;;;;;;;5013636;28;20048;-75
2022/06/30 05:35:35;;;;;;;4.93;3.60;;;;;;;;;;5015050;28;20037;-72
2022/06/30 05:38:00;;;;;;;4.63;3.53;;;;;;;;;;5016893;28;20515;-72
2022/06/30 05:40:26;;;;;;;6.35;3.40;;;;;;;;;;5012188;28;20142;-71
2022/06/30 05:42:51;;;;;;;4.80;2.72;;;;;;;;;;5019781;28;20430;-70
2022/06/30 05:45:16;;;;;;;4.10;2.85;;;;;;;;;;5016645;28;20064;-70
2022/06/30 05:47:46;;;;;;;4.35;2.97;;;;;;;;;;5014044;28;20036;-70
2022/06/30 05:50:12;;;;;;;4.40;3.38;;;;;;;;;;5008139;28;20036;-72
2022/06/30 05:52:37;;;;;;;7.30;3.60;;;;;;;;;;5011486;28;20464;-70
2022/06/30 05:55:02;;;;;;;5.07;3.50;;;;;;;;;;5016275;28;20048;-70
2022/06/30 05:57:28;;;;;;;4.47;3.42;;;;;;;;;;5020578;28;20116;-74
2022/06/30 05:59:53;;;;;;;6.95;3.65;;;;;;;;;;5017251;28;20118;-72
2022/06/30 06:02:18;;;;;;;7.88;3.83;;;;;;;;;;5017723;28;20033;-70
2022/06/30 06:04:44;;;;;;;4.78;3.25;;;;;;;;;;5016075;28;20022;-74
2022/06/30 06:07:09;;;;;;;8.10;3.65;;;;;;;;;;5013811;28;20021;-70
2022/06/30 06:09:34;;;;;;;6.15;3.40;;;;;;;;;;5014774;28;20419;-69
2022/06/30 06:12:00;;;;;;;9.88;4.38;;;;;;;;;;5015789;28;20026;-70
2022/06/30 06:14:25;;;;;;;16.13;5.28;;;;;;;;;;5011551;28;20135;-70
2022/06/30 06:16:50;;;;;;;10.93;4.93;;;;;;;;;;5015893;28;20061;-72
2022/06/30 06:19:16;;;;;;;7.72;3.85;;;;;;;;;;5015661;28;20040;-71
2022/06/30 06:21:41;;;;;;;5.53;3.72;;;;;;;;;;5015895;28;20100;-72
2022/06/30 06:24:06;;;;;;;6.55;3.38;;;;;;;;;;5019792;28;20413;-70
2022/06/30 06:26:32;;;;;;;5.70;3.40;;;;;;;;;;5017453;28;20032;-73
2022/06/30 06:29:06;;;;;;;3.58;3.05;;;;;;;;;;5016265;28;20116;-71
2022/06/30 06:31:32;;;;;;;5.88;3.55;;;;;;;;;;5015548;28;20068;-70
2022/06/30 06:33:57;;;;;;;3.70;3.40;;;;;;;;;;5018470;28;20075;-69
2022/06/30 06:36:23;;;;;;;6.53;3.67;;;;;;;;;;5017854;28;20086;-73
2022/06/30 06:38:48;;;;;;;3.53;3.10;;;;;;;;;;5017638;28;20025;-70
2022/06/30 06:41:14;;;;;;;7.47;3.55;;;;;;;;;;5014298;28;20174;-74
2022/06/30 06:43:40;;;;;;;4.72;3.00;;;;;;;;;;5013630;28;20514;-72
2022/06/30 06:46:05;;;;;;;13.45;3.53;;;;;;;;;;5014945;28;20013;-72
2022/06/30 06:48:30;;;;;;;4.05;2.53;;;;;;;;;;5013561;28;20112;-70
2022/06/30 06:50:56;;;;;;;3.05;2.65;;;;;;;;;;5015083;28;20037;-71
2022/06/30 06:53:21;;;;;;;2.78;2.40;;;;;;;;;;5015513;28;20029;-71
2022/06/30 06:55:46;;;;;;;3.10;2.60;;;;;;;;;;5016832;28;20364;-71
2022/06/30 06:58:12;;;;;;;3.10;2.80;;;;;;;;;;5016644;28;20053;-74
2022/06/30 07:00:37;;;;;;;3.75;2.63;;;;;;;;;;5016633;28;20026;-70
2022/06/30 07:03:03;;;;;;;6.07;3.00;;;;;;;;;;5012697;28;20041;-74
2022/06/30 07:05:28;;;;;;;4.38;2.78;;;;;;;;;;5014409;28;20429;-72
2022/06/30 07:07:57;;;;;;;2.55;2.35;;;;;;;;;;5012860;28;20021;-71
2022/06/30 07:10:23;;;;;;;6.03;2.70;;;;;;;;;;5012734;28;20318;-72
2022/06/30 07:12:48;;;;;;;3.55;2.58;;;;;;;;;;5009423;28;20037;-74
2022/06/30 07:15:14;;;;;;;5.05;2.65;;;;;;;;;;5012058;28;20049;-71
2022/06/30 07:17:39;;;;;;;7.40;2.63;;;;;;;;;;5013035;28;20045;-69
2022/06/30 07:20:05;;;;;;;2.83;2.55;;;;;;;;;;5009241;28;20032;-71
2022/06/30 07:22:30;;;;;;;3.15;2.67;;;;;;;;;;5009368;28;20099;-69
2022/06/30 07:24:56;;;;;;;6.53;2.97;;;;;;;;;;5011844;28;20337;-71
2022/06/30 07:27:21;;;;;;;3.42;2.72;;;;;;;;;;5013465;28;20026;-69
2022/06/30 07:29:46;;;;;;;4.25;2.97;;;;;;;;;;5009926;28;20056;-70
2022/06/30 07:32:13;;;;;;;3.47;2.55;;;;;;;;;;5015678;28;20107;-73
2022/06/30 07:34:38;;;;;;;4.45;3.00;;;;;;;;;;5013960;28;20045;-70
2022/06/30 07:37:04;;;;;;;3.78;2.78;;;;;;;;;;5012582;28;20029;-72
2022/06/30 07:39:29;;;;;;;2.60;2.40;;;;;;;;;;5011005;28;20476;-70
2022/06/30 07:41:55;;;;;;;2.85;2.47;;;;;;;;;;5011193;28;20045;-70
2022/06/30 07:44:20;;;;;;;2.97;2.30;;;;;;;;;;5015087;28;20408;-69
2022/06/30 07:46:47;;;;;;;2.38;2.17;;;;;;;;;;5017639;28;20131;-71
2022/06/30 07:49:12;;;;;;;2.47;2.28;;;;;;;;;;5017058;28;20395;-71
2022/06/30 07:51:38;;;;;;;2.53;2.33;;;;;;;;;;5016847;28;20214;-73
2022/06/30 07:54:03;;;;;;;2.30;2.13;;;;;;;;;;5012303;28;20036;-69
2022/06/30 07:56:30;;;;;;;3.63;2.50;;;;;;;;;;5015267;28;20026;-70
2022/06/30 07:58:56;;;;;;;3.45;3.00;;;;;;;;;;5014892;28;20091;-71
2022/06/30 08:01:21;;;;;;;3.47;2.60;;;;;;;;;;5015964;28;20039;-72
2022/06/30 08:03:47;;;;;;;5.47;2.60;;;;;;;;;;5013711;28;20056;-73
2022/06/30 08:06:12;;;;;;;2.10;1.98;;;;;;;;;;5014481;28;20104;-72
2022/06/30 08:08:38;;;;;;;2.50;2.30;;;;;;;;;;5014343;28;20017;-71
2022/06/30 08:11:03;;;;;;;4.72;2.65;;;;;;;;;;5011725;28;20043;-72
2022/06/30 08:13:29;;;;;;;2.55;2.28;;;;;;;;;;5014692;28;20036;-70
2022/06/30 08:15:54;;;;;;;2.22;2.13;;;;;;;;;;5008017;28;20037;-72
2022/06/30 08:18:20;;;;;;;2.60;2.40;;;;;;;;;;5007187;28;20439;-70
2022/06/30 08:20:45;;;;;;;2.40;2.20;;;;;;;;;;5007612;28;20356;-71
2022/06/30 08:23:11;;;;;;;2.85;2.65;;;;;;;;;;5005487;28;20048;-74
2022/06/30 08:25:36;;;;;;;2.78;2.20;;;;;;;;;;5006162;28;20040;-71
2022/06/30 08:28:04;;;;;;;3.13;2.38;;;;;;;;;;5005544;28;20025;-73
2022/06/30 08:30:29;;;;;;;4.85;2.60;;;;;;;;;;5008359;28;20057;-70
2022/06/30 08:32:55;;;;;;;2.28;2.08;;;;;;;;;;5007075;28;20064;-71
2022/06/30 08:35:20;;;;;;;3.63;2.53;;;;;;;;;;5008276;28;20386;-70
2022/06/30 08:37:45;;;;;;;4.68;2.13;;;;;;;;;;5007552;28;20026;-76
2022/06/30 08:42:55;;;;;;;3.47;2.45;;;;;;;;;;5009461;28;20060;-75
2022/06/30 08:45:21;;;;;;;3.30;2.22;;;;;;;;;;5019622;28;20330;-72
2022/06/30 08:47:47;;;;;;;5.75;2.45;;;;;;;;;;5007791;28;20044;-71
2022/06/30 08:50:14;;;;;;;2.53;2.33;;;;;;;;;;5012052;28;20061;-70
2022/06/30 08:52:41;;;;;;;3.25;2.15;;;;;;;;;;5013767;28;20013;-71
2022/06/30 08:55:08;;;;;;;3.17;2.33;;;;;;;;;;5013559;28;20025;-71
2022/06/30 08:57:33;;;;;;;2.25;1.90;;;;;;;;;;5013946;28;20022;-72
2022/06/30 08:59:59;;;;;;;2.70;2.50;;;;;;;;;;5008407;28;20026;-74
2022/06/30 09:02:24;;;;;;;4.85;2.20;;;;;;;;;;5006934;28;20042;-71
2022/06/30 09:04:50;;;;;;;2.95;2.13;;;;;;;;;;5007148;28;20033;-76
2022/06/30 09:07:15;;;;;;;2.67;2.00;;;;;;;;;;5004650;28;20057;-72
2022/06/30 09:09:40;;;;;;;4.75;2.30;;;;;;;;;;5007225;28;20492;-72
2022/06/30 09:12:13;;;;;;;3.08;2.05;;;;;;;;;;5003396;28;20041;-71
2022/06/30 09:14:40;;;;;;;3.90;2.22;;;;;;;;;;5009840;28;20032;-71
2022/06/30 09:17:07;;;;;;;2.30;2.10;;;;;;;;;;5021187;28;20452;-73
2022/06/30 09:19:33;;;;;;;3.70;2.35;;;;;;;;;;5008577;28;20624;-79
2022/06/30 09:22:14;;;;;;;2.60;2.28;;;;;;;;;;5005553;28;20033;-71
2022/06/30 09:24:39;;;;;;;2.70;2.45;;;;;;;;;;5005149;28;20352;-72
2022/06/30 09:27:19;;;;;;;9.27;2.53;;;;;;;;;;5019072;28;20080;-71
2022/06/30 09:30:09;;;;;;;4.65;2.70;;;;;;;;;;5021227;28;20459;-78
2022/06/30 09:32:43;;;;;;;2.20;2.03;;;;;;;;;;5013468;28;20046;-71
2022/06/30 09:35:10;;;;;;;3.08;2.53;;;;;;;;;;5017201;28;20040;-70
2022/06/30 09:37:36;;;;;;;3.55;2.47;;;;;;;;;;5020179;28;20041;-77
2022/06/30 09:40:01;;;;;;;3.08;2.40;;;;;;;;;;5020044;28;20401;-74
2022/06/30 09:42:46;;;;;;;3.97;2.40;;;;;;;;;;5018010;28;20056;-76
2022/06/30 09:45:12;;;;;;;3.90;2.58;;;;;;;;;;5021244;28;20037;-72
2022/06/30 09:47:51;;;;;;;7.53;3.15;;;;;;;;;;5020015;28;20037;-71
2022/06/30 09:50:16;;;;;;;3.00;2.25;;;;;;;;;;5019034;28;20031;-71
2022/06/30 09:52:42;;;;;;;2.70;2.47;;;;;;;;;;5018108;28;20030;-74
2022/06/30 09:55:08;;;;;;;4.07;2.78;;;;;;;;;;5020841;28;20033;-72
2022/06/30 09:57:38;;;;;;;2.50;2.30;;;;;;;;;;5019446;28;20028;-71
2022/06/30 10:00:05;;;;;;;3.08;2.35;;;;;;;;;;5004267;28;20341;-77
2022/06/30 10:02:33;;;;;;;3.30;2.90;;;;;;;;;;5004952;28;20033;-71
2022/06/30 10:04:59;;;;;;;3.08;2.35;;;;;;;;;;5015541;28;20052;-72
2022/06/30 10:07:24;;;;;;;3.83;2.60;;;;;;;;;;5007789;28;20390;-71
2022/06/30 10:09:51;;;;;;;2.78;2.53;;;;;;;;;;5005893;28;20030;-71
2022/06/30 10:12:17;;;;;;;3.13;2.20;;;;;;;;;;5007146;28;20033;-69
2022/06/30 10:14:43;;;;;;;2.53;2.33;;;;;;;;;;5007906;28;20075;-72
2022/06/30 10:17:09;;;;;;;5.22;2.10;;;;;;;;;;5007665;28;20037;-71
2022/06/30 10:19:34;;;;;;;3.78;2.38;;;;;;;;;;5018734;28;20089;-71
2022/06/30 10:22:00;;;;;;;2.60;2.40;;;;;;;;;;5014881;28;20116;-71
2022/06/30 10:24:25;;;;;;;5.28;2.33;;;;;;;;;;5018135;28;20021;-70
2022/06/30 10:29:35;;;;;;;2.47;2.28;;;;;;;;;;5005939;28;20366;-73
2022/06/30 10:32:06;;;;;;;3.97;2.60;;;;;;;;;;5014148;28;20042;-71
2022/06/30 10:34:40;;;;;;;3.83;2.15;;;;;;;;;;5006986;28;20037;-79
2022/06/30 10:37:26;;;;;;;2.53;2.33;;;;;;;;;;5015674;28;20045;-72
2022/06/30 10:40:04;;;;;;;2.40;2.20;;;;;;;;;;5014799;28;20034;-70
2022/06/30 10:42:38;;;;;;;4.70;2.50;;;;;;;;;;5015940;28;20065;-71
2022/06/30 10:45:04;;;;;;;4.03;2.15;;;;;;;;;;5019084;28;20032;-75
2022/06/30 10:47:29;;;;;;;4.20;2.45;;;;;;;;;;5016395;28;20021;-77
2022/06/30 10:49:56;;;;;;;2.53;2.33;;;;;;;;;;5005194;28;20025;-77
2022/06/30 10:52:23;;;;;;;2.92;2.40;;;;;;;;;;5015121;28;20417;-71
2022/06/30 10:54:48;;;;;;;2.83;2.20;;;;;;;;;;5018346;28;20029;-71
2022/06/30 10:57:16;;;;;;;2.50;2.00;;;;;;;;;;5016474;28;20040;-77
2022/06/30 10:59:41;;;;;;;2.65;2.13;;;;;;;;;;5016073;28;20040;-70
2022/06/30 11:02:07;;;;;;;2.80;2.22;;;;;;;;;;5019736;28;20033;-71
2022/06/30 11:04:33;;;;;;;3.88;2.30;;;;;;;;;;5018380;28;20022;-71
2022/06/30 11:07:22;;;;;;;4.05;2.30;;;;;;;;;;5016811;28;20025;-71
2022/06/30 11:09:47;;;;;;;2.45;2.25;;;;;;;;;;5009073;28;20128;-77
2022/06/30 11:12:20;;;;;;;3.65;2.13;;;;;;;;;;5017987;28;20108;-73
2022/06/30 11:14:46;;;;;;;7.20;2.50;;;;;;;;;;5017463;28;20025;-70
2022/06/30 11:17:15;;;;;;;3.10;2.30;;;;;;;;;;5018927;28;20109;-70
2022/06/30 11:19:41;;;;;;;2.80;2.60;;;;;;;;;;5018223;28;20843;-75
2022/06/30 11:22:07;;;;;;;3.13;2.60;;;;;;;;;;5019504;28;20083;-69
2022/06/30 11:24:35;;;;;;;3.83;2.30;;;;;;;;;;5032580;28;20391;-69
2022/06/30 11:27:19;;;;;;;6.10;2.67;;;;;;;;;;5023547;28;20381;-73
2022/06/30 11:30:03;;;;;;;3.72;2.47;;;;;;;;;;5021190;28;20747;-70
2022/06/30 11:32:28;;;;;;;5.07;2.60;;;;;;;;;;5021371;28;20048;-71
2022/06/30 11:34:54;;;;;;;3.45;2.28;;;;;;;;;;5020372;28;20048;-70
2022/06/30 11:37:20;;;;;;;2.75;2.55;;;;;;;;;;5008450;28;20045;-74
2022/06/30 11:39:46;;;;;;;7.22;2.70;;;;;;;;;;5009621;28;20036;-75
2022/06/30 11:42:11;;;;;;;4.50;2.50;;;;;;;;;;5011116;28;20054;-72
2022/06/30 11:44:38;;;;;;;6.60;3.00;;;;;;;;;;5010488;28;20025;-79
2022/06/30 11:47:11;;;;;;;4.20;2.75;;;;;;;;;;5008838;28;20021;-72
2022/06/30 11:49:46;;;;;;;3.33;2.67;;;;;;;;;;5012747;28;20456;-72
2022/06/30 11:52:15;;;;;;;3.67;2.90;;;;;;;;;;5010156;28;20033;-71
2022/06/30 11:54:42;;;;;;;5.85;2.70;;;;;;;;;;5011944;28;20045;-72
2022/06/30 11:57:08;;;;;;;3.45;2.22;;;;;;;;;;5009754;28;20022;-71
2022/06/30 11:59:34;;;;;;;4.90;2.85;;;;;;;;;;5009187;28;20086;-72
2022/06/30 12:02:04;;;;;;;3.35;2.78;;;;;;;;;;5012161;28;20025;-73
2022/06/30 12:04:30;;;;;;;6.70;2.80;;;;;;;;;;5011102;28;20087;-71
2022/06/30 12:06:55;;;;;;;3.40;2.40;;;;;;;;;;5010356;28;20021;-74
2022/06/30 12:09:20;;;;;;;3.72;2.67;;;;;;;;;;5006659;28;20357;-78
2022/06/30 12:11:46;;;;;;;2.55;2.35;;;;;;;;;;5013224;28;20108;-77
2022/06/30 12:14:11;;;;;;;3.80;2.42;;;;;;;;;;5009550;28;20052;-72
2022/06/30 12:16:37;;;;;;;2.90;2.40;;;;;;;;;;5011849;28;20128;-72
2022/06/30 12:19:02;;;;;;;2.80;2.47;;;;;;;;;;5008795;28;20100;-71
2022/06/30 12:21:28;;;;;;;2.97;2.72;;;;;;;;;;5014154;28;20409;-72
2022/06/30 12:23:54;;;;;;;3.17;2.55;;;;;;;;;;5018658;28;20334;-72
2022/06/30 12:26:20;;;;;;;3.25;2.78;;;;;;;;;;5017047;28;20037;-72
2022/06/30 12:28:51;;;;;;;4.28;2.58;;;;;;;;;;5019032;28;20444;-77
2022/06/30 12:31:27;;;;;;;7.90;2.83;;;;;;;;;;5013245;28;20413;-85
2022/06/30 12:33:53;;;;;;;2.70;2.50;;;;;;;;;;5011959;28;20057;-74
2022/06/30 12:36:18;;;;;;;5.45;2.85;;;;;;;;;;5010170;28;20111;-73
2022/06/30 12:38:44;;;;;;;3.88;3.08;;;;;;;;;;5016502;28;20758;-75
2022/06/30 12:41:12;;;;;;;2.83;2.60;;;;;;;;;;5017310;28;20056;-72
2022/06/30 12:43:48;;;;;;;3.97;2.63;;;;;;;;;;5019453;28;20075;-73
2022/06/30 12:46:14;;;;;;;4.38;3.38;;;;;;;;;;5017496;28;20358;-71
2022/06/30 12:48:50;;;;;;;3.15;2.85;;;;;;;;;;5018832;28;20095;-74
2022/06/30 12:51:35;;;;;;;5.05;3.17;;;;;;;;;;5016034;28;20459;-73
2022/06/30 12:54:05;;;;;;;3.17;2.88;;;;;;;;;;5005049;28;20077;-71
2022/06/30 12:56:31;;;;;;;5.60;2.67;;;;;;;;;;5016981;28;20045;-71
2022/06/30 12:59:01;;;;;;;3.50;2.53;;;;;;;;;;5019412;28;20022;-73
2022/06/30 13:01:28;;;;;;;3.28;2.70;;;;;;;;;;5017623;28;20471;-73
2022/06/30 13:04:00;;;;;;;7.05;2.80;;;;;;;;;;5015237;28;20095;-74
2022/06/30 13:06:27;;;;;;;3.20;2.90;;;;;;;;;;5018144;28;20500;-77
2022/06/30 13:08:53;;;;;;;3.25;2.95;;;;;;;;;;5016058;28;20424;-78
2022/06/30 13:11:22;;;;;;;3.05;2.75;;;;;;;;;;5011362;28;20037;-72
2022/06/30 13:13:47;;;;;;;4.38;2.70;;;;;;;;;;5008481;28;20432;-74
2022/06/30 13:16:14;;;;;;;3.30;2.47;;;;;;;;;;5008101;28;20025;-75
2022/06/30 13:18:39;;;;;;;3.20;2.90;;;;;;;;;;5011664;28;20420;-74
2022/06/30 13:21:04;;;;;;;3.20;2.90;;;;;;;;;;5008912;28;20029;-72
2022/06/30 13:23:30;;;;;;;3.50;2.70;;;;;;;;;;5014056;28;20777;-71
2022/06/30 13:25:55;;;;;;;4.43;2.97;;;;;;;;;;5009874;28;20428;-81
2022/06/30 13:28:21;;;;;;;4.18;2.60;;;;;;;;;;5003750;28;20488;-71
2022/06/30 13:30:46;;;;;;;3.95;2.97;;;;;;;;;;5006092;28;20463;-70
2022/06/30 13:33:12;;;;;;;7.40;3.03;;;;;;;;;;5006304;28;20030;-80
2022/06/30 13:35:38;;;;;;;4.03;2.83;;;;;;;;;;5004597;28;20060;-74
2022/06/30 13:38:03;;;;;;;3.10;2.80;;;;;;;;;;5005510;28;20555;-78
2022/06/30 13:40:29;;;;;;;10.07;2.90;;;;;;;;;;5004781;28;20344;-72
2022/06/30 13:42:54;;;;;;;3.92;2.90;;;;;;;;;;5004916;28;20152;-71
2022/06/30 13:45:20;;;;;;;3.60;3.10;;;;;;;;;;5005337;28;20041;-71
2022/06/30 13:47:45;;;;;;;3.50;3.00;;;;;;;;;;5005134;28;20477;-76
2022/06/30 13:50:10;;;;;;;4.18;3.08;;;;;;;;;;5004028;28;20028;-71
2022/06/30 13:52:36;;;;;;;10.50;2.80;;;;;;;;;;5003645;28;20469;-76
2022/06/30 13:55:02;;;;;;;4.43;2.80;;;;;;;;;;5003896;28;20025;-74
2022/06/30 13:57:28;;;;;;;3.17;2.80;;;;;;;;;;5007046;28;20579;-69
2022/06/30 13:59:53;;;;;;;3.78;2.60;;;;;;;;;;5006184;28;21108;-72
2022/06/30 14:02:18;;;;;;;5.00;2.90;;;;;;;;;;5005250;28;20041;-72
2022/06/30 14:04:44;;;;;;;3.15;2.58;;;;;;;;;;5004811;28;20029;-71
2022/06/30 14:07:09;;;;;;;6.63;3.50;;;;;;;;;;5004646;28;20398;-73
2022/06/30 14:09:36;;;;;;;3.70;3.00;;;;;;;;;;5006580;28;20029;-78
2022/06/30 14:12:01;;;;;;;6.00;2.88;;;;;;;;;;5003185;28;20080;-76
2022/06/30 14:14:28;;;;;;;4.35;2.80;;;;;;;;;;5006503;28;20084;-76
2022/06/30 14:16:55;;;;;;;24.73;15.90;;;;;;;;;;5005541;28;20095;-72
2022/06/30 14:19:21;;;;;;;13.23;7.70;;;;;;;;;;5002580;28;20437;-72
2022/06/30 14:21:47;;;;;;;5.53;4.18;;;;;;;;;;5007818;28;20528;-82
2022/06/30 14:24:12;;;;;;;6.95;4.35;;;;;;;;;;5006835;28;20032;-73
2022/06/30 14:26:38;;;;;;;8.80;6.18;;;;;;;;;;5005968;28;20030;-76
2022/06/30 14:29:03;;;;;;;4.63;3.20;;;;;;;;;;5004838;28;20314;-71
2022/06/30 14:31:29;;;;;;;3.60;3.30;;;;;;;;;;5003808;28;20449;-76
2022/06/30 14:33:54;;;;;;;7.38;2.63;;;;;;;;;;5006612;28;20391;-71
2022/06/30 14:36:19;;;;;;;4.60;3.05;;;;;;;;;;5006706;28;20100;-78
2022/06/30 14:38:45;;;;;;;3.10;2.78;;;;;;;;;;5005583;28;20105;-77
2022/06/30 14:41:10;;;;;;;2.78;2.53;;;;;;;;;;5006177;28;20455;-74
2022/06/30 14:43:35;;;;;;;5.03;3.45;;;;;;;;;;5017348;28;20029;-72
2022/06/30 14:46:01;;;;;;;3.63;3.00;;;;;;;;;;5006679;28;20057;-76
2022/06/30 14:48:27;;;;;;;3.85;3.55;;;;;;;;;;5005510;28;20083;-73
2022/06/30 14:50:52;;;;;;;4.60;3.00;;;;;;;;;;5007688;28;20034;-70
2022/06/30 14:53:18;;;;;;;5.68;2.90;;;;;;;;;;5016250;28;20425;-70